Terminal Aerodrome Forecast
Issued by NWS

Home | Current Version | Previous Version | Text Only | Print | Product List | Glossary On
Versions: 1 2 3 4 5 6 7 8 9 10 11 12 13 14 15 16 17 18 19 20 21 22 23 24 25 26 27 28 29 30
479
FTUS43 KDLH 230224 AAB
TAFHIB
TAF AMD
KHIB 230224Z 2302/2324 00000KT P6SM VCSH OVC080
      TEMPO 2302/2305 SCT019 BKN025
     FM230600 00000KT 2SM BR VCSH OVC008
     FM231300 01006KT 4SM BR VCSH OVC003
     FM231600 03009KT P6SM VCSH BKN015
     FM231900 03011G18KT P6SM VCSH BKN025=

USA.gov is the U.S. government's official web portal to all federal, state and local government web resources and services.